Weather at Cap Haitien International Airport

Public forecast

Using degrees Celsius for public forecast. Weather courtesy of forecast.io.

Current aviation weather report (METAR) for Cap Haitien International Airport

Report is more than 6 hours old.

Retrieved 2022/08/29 18:54 UTC (27 days ago):

MTCH 291854Z 03012KT 9000 SCT024CB 31/23 Q1014 RMK

Aviation forecast (TAF) for Cap Haitien International Airport

Forecast is more than 12 hours old.

Retrieved 2022/09/17 18:36 UTC (8 days ago):

TAF MTCH 171800Z 1718/1818 02013KT 9999 SCT030TCU FM180400 36005KT 8000 NSC TEMPO 1808/1812 VRB02KT BECMG 1814/1818 05012KT